Flight Track Log - Related Links

Times and Time Zones

All times are in EDT time to prevent confusion due to time zone crossing. See the AMF1324 flight status page for this flight to view local times or setup timezone preferences in your user account.

Time Position Orientation Groundspeed Altitude Reporting Facility
EDT Latitude Longitude Course Direction KTS MPH feet Rate Location/Type
Fri 08:05:26 AM 42.2522 -76.0797 297° West 147 169 8,200  Level New York Center
Fri 08:06:26 AM 42.2686 -76.1314 293° West 152 175 10,500 1,950 Climbing New York Center
Fri 08:07:26 AM 42.2850 -76.1858 292° West 152 175 12,100 800 Climbing New York Center
Fri 08:08:26 AM 42.3150 -76.2586 299° West 182 209 12,100 -50 Level New York Center
Fri 08:09:00 AM 42.1665 -76.1664 304° West  Level FlightAware Approximate
Fri 08:09:26 AM 42.3386 -76.3333 293° West 209 241 12,000  Level New York Center
Fri 08:10:26 AM 42.3664 -76.4058 297° West 214 246 12,000  Level New York Center
Fri 08:12:00 AM 42.3937 -76.4976 294° West  Level FlightAware Approximate
Fri 08:12:50 AM 42.4283 -76.5806 294° West 217 250 12,000  Level Cleveland Center
Fri 08:13:51 AM 42.4547 -76.6544 296° West 218 251 12,000  Level Cleveland Center
Fri 08:14:53 AM 42.4828 -76.7275 298° West 218 251 12,000  Level Cleveland Center
Fri 08:15:55 AM 42.5117 -76.8169 294° West 218 251 12,000  Level Cleveland Center
Fri 08:16:57 AM 42.5378 -76.8889 296° West 218 251 12,000  Level Cleveland Center
Fri 08:17:58 AM 42.5619 -76.9636 294° West 218 251 12,000  Level Cleveland Center
Fri 08:19:00 AM 42.5861 -77.0403 293° West 218 251 12,000  Level Cleveland Center
Fri 08:20:02 AM 42.6108 -77.1161 294° West 218 251 12,000  Level Cleveland Center
Fri 08:20:58 AM 42.6342 -77.2008 291° West 220 253 12,000  Level Cleveland Center
Fri 08:21:03 AM 42.6328 -77.1928 103° East 218 251 12,000  Level Cleveland Center
Fri 08:21:59 AM 42.6578 -77.2758 292° West 221 254 12,000  Level Cleveland Center
Fri 08:22:05 AM 42.6564 -77.2689 105° East 218 251 12,000  Level Cleveland Center
Fri 08:23:07 AM 42.6842 -77.3606 292° West 219 252 12,000  Level Cleveland Center
Fri 08:23:54 AM 42.7075 -77.4208 298° West 218 251 12,000 -97 Level Cleveland Center
Fri 08:24:09 AM 42.7117 -77.4342 293° West 219 252 11,900 -689 Descending Cleveland Center
Fri 08:24:55 AM 42.7347 -77.4969 297° West 227 261 11,300 -689 Descending Cleveland Center
Fri 08:25:10 AM 42.7411 -77.5092 305° West 223 257 11,200 -1,000 Descending Cleveland Center
Fri 08:25:55 AM 42.7692 -77.5694 302° West 226 260 10,300 -1,065 Descending Cleveland Center
Fri 08:26:12 AM 42.7744 -77.5825 299° West 229 264 10,100 -896 Descending Cleveland Center
Fri 08:27:02 AM 42.8033 -77.6561 298° West 237 273 9,300 -774 Descending Cleveland Center
Fri 08:27:14 AM 42.8036 -77.6608 275° West 236 272 9,300 -764 Level Cleveland Center
Fri 08:27:57 AM 42.8319 -77.7244 301° West 223 257 8,600 -1,065 Descending Cleveland Center
Fri 08:28:16 AM 42.8403 -77.7494 294° West 229 264 8,200 -900 Descending Cleveland Center
Fri 08:28:57 AM 42.8386 -77.8097 268° West 231 266 7,700 -787 Descending Cleveland Center
Fri 08:29:17 AM 42.8386 -77.8403 270° West 241 277 7,400 -878 Descending Cleveland Center
Fri 08:30:19 AM 42.8383 -77.9319 270° West 235 270 6,500 -968 Descending Cleveland Center
Fri 08:31:21 AM 42.8425 -78.0222 274° West 230 265 5,400 -1,016 Descending Cleveland Center
Fri 08:32:23 AM 42.8486 -78.0978 276° West 227 261 4,400 -677 Descending Cleveland Center
Fri 08:33:25 AM 42.8564 -78.1969 276° West 227 261 4,000 -195 Descending Cleveland Center
Fri 08:34:26 AM 42.8611 -78.2833 274° West 232 267 4,000  Level Cleveland Center
Fri 08:35:28 AM 42.8706 -78.3736 278° West 231 266 4,000 -97 Level Cleveland Center
Fri 08:36:30 AM 42.8817 -78.4594 280° West 223 257 3,800 -629 Descending Cleveland Center
Fri 08:37:32 AM 42.8858 -78.5339 274° West 215 247 2,700 -677 Descending Cleveland Center
Fri 08:38:34 AM 42.8825 -78.5983 266° West 191 220 2,400 -345 Descending Cleveland Center
Fri 08:39:51 AM 42.9000 -78.6500 295° West 103 119 1,900 -458 Descending Buffalo TRACON
Fri 08:40:45 AM 42.9167 -78.6833 304° West 113 130 1,400 -556 Descending Buffalo TRACON
Fri 08:42:00 AM 42.9333 -78.7167 270° West  Level FlightAware Approximate
Fri 08:49:00 AM 42.9404 -78.7306 270° West  Level Estimated
Fri 08:50:00 AM 42.9404 -78.7306 270° West  Level Estimated

Login

Don't have an account? Register now (free) for customized features, flight alerts, and more!